YOS weather

Owen Sound / Billy Bishop Regional Airport
Owen Sound, Ontario, Canada

Public forecast

Using degrees Celsius for public forecast. Weather courtesy of forecast.io.

METAR (pilot weather report)

Closest report is Wiarton Airport, 14.8 nm (27.5 km) NW. Retrieved 2019/04/21 00:00 UTC (3 minutes ago):

CYVV 210000Z VRB02KT 15SM BCFG FEW004 OVC025 05/05 A2972 RMK SF2SC6 /R13/ SLP072

TAF (pilot weather forecast)

Closest forecast is Wiarton Airport, 14.8 nm (27.5 km) NW. Retrieved 2019/04/20 20:00 UTC (4 hours ago):

TAF CYVV 201938Z 2020/2023 05012KT P6SM -RA OVC035 TEMPO 2020/2023 4SM -SHRA BR BKN008 OVC015 RMK NXT FCST WILL BE ISSUED AT 211045Z